createdAt,value
2022-10-31T00:01:40.583Z,101024.44
2022-10-31T00:04:07.308Z,101024.94
2022-10-31T00:06:34.030Z,101025.84
2022-10-31T00:09:02.521Z,101033.69
2022-10-31T00:11:29.721Z,101032.19
2022-10-31T00:13:58.118Z,101022.44
2022-10-31T00:16:26.379Z,101025.56
2022-10-31T00:18:55.291Z,101030.66
2022-10-31T00:21:22.291Z,101020.31
2022-10-31T00:23:49.393Z,101035.13
2022-10-31T00:26:17.413Z,101033.16
2022-10-31T00:28:44.146Z,101029.28
2022-10-31T00:31:12.623Z,101029.38
2022-10-31T00:33:40.417Z,101032.03
2022-10-31T00:36:08.877Z,101029.81
2022-10-31T00:38:35.362Z,101040.50
2022-10-31T00:41:01.968Z,101037.56
2022-10-31T00:43:28.570Z,101039.81
2022-10-31T00:45:55.116Z,101039.03
2022-10-31T00:48:21.547Z,101046.44
2022-10-31T00:50:47.976Z,101049.94
2022-10-31T00:53:14.515Z,101044.81
2022-10-31T00:55:41.012Z,101040.75
2022-10-31T00:58:07.611Z,101043.63
2022-10-31T01:00:34.193Z,101046.84
2022-10-31T01:03:01.499Z,101049.81
2022-10-31T01:05:28.272Z,101047.56
2022-10-31T01:07:54.797Z,101047.03
2022-10-31T01:10:21.266Z,101046.88
2022-10-31T01:12:49.123Z,101046.72
2022-10-31T01:15:21.798Z,101039.84
2022-10-31T01:17:49.009Z,101050.66
2022-10-31T01:20:16.643Z,101046.50
2022-10-31T01:22:43.178Z,101049.06
2022-10-31T01:25:10.734Z,101049.06
2022-10-31T01:27:37.276Z,101047.47
2022-10-31T01:30:05.096Z,101050.75
2022-10-31T01:32:31.564Z,101043.84
2022-10-31T01:34:58.055Z,101051.91
2022-10-31T01:37:24.580Z,101048.81
2022-10-31T01:39:51.059Z,101050.34
2022-10-31T01:42:21.271Z,101042.31
2022-10-31T01:44:52.433Z,101042.81
2022-10-31T01:47:26.995Z,101039.22
2022-10-31T01:49:57.504Z,101036.56
2022-10-31T01:52:38.989Z,101041.63
2022-10-31T01:55:15.015Z,101025.91
2022-10-31T01:57:44.687Z,101030.88
2022-10-31T02:00:12.547Z,101028.06
2022-10-31T02:02:39.458Z,101032.00
2022-10-31T02:05:10.111Z,101028.84
2022-10-31T02:07:51.575Z,101030.78
2022-10-31T02:10:19.844Z,101028.44
2022-10-31T02:12:47.043Z,101028.75
2022-10-31T02:15:13.736Z,101031.53
2022-10-31T02:17:40.263Z,101032.97
2022-10-31T02:20:19.540Z,101030.84
2022-10-31T02:23:23.313Z,101031.09
2022-10-31T02:26:11.559Z,101028.44
2022-10-31T02:29:09.365Z,101023.53
2022-10-31T02:32:00.937Z,101026.13
2022-10-31T02:34:52.206Z,101032.91
2022-10-31T02:37:27.332Z,101029.91
2022-10-31T02:40:10.229Z,101032.22
2022-10-31T02:43:03.459Z,101030.31
2022-10-31T02:45:56.005Z,101032.28
2022-10-31T02:48:27.963Z,101033.94
2022-10-31T02:51:01.189Z,101023.69
2022-10-31T02:53:27.756Z,101027.31
2022-10-31T02:56:00.806Z,101026.38
2022-10-31T02:58:35.637Z,101029.47
2022-10-31T03:01:34.709Z,101026.66
2022-10-31T03:04:17.054Z,101031.84
2022-10-31T03:07:12.017Z,101030.41
2022-10-31T03:09:44.181Z,101029.13
2022-10-31T03:12:22.220Z,101031.75
2022-10-31T03:15:18.711Z,101027.13
2022-10-31T03:17:54.530Z,101036.47
2022-10-31T03:20:26.060Z,101025.50
2022-10-31T03:22:53.437Z,101023.44
2022-10-31T03:25:20.014Z,101015.72
2022-10-31T03:27:47.841Z,101022.59
2022-10-31T03:30:15.343Z,101026.88
2022-10-31T03:32:55.381Z,101025.50
2022-10-31T03:35:24.526Z,101022.16
2022-10-31T03:37:54.245Z,101024.50
2022-10-31T03:40:24.378Z,101022.59
2022-10-31T03:42:57.225Z,101023.03
2022-10-31T03:45:34.484Z,101023.13
2022-10-31T03:48:01.550Z,101019.84
2022-10-31T03:50:37.673Z,101018.13
2022-10-31T03:53:14.297Z,101012.69
2022-10-31T03:55:46.328Z,101010.22
2022-10-31T03:58:38.183Z,101015.38
2022-10-31T04:01:07.701Z,101014.03
2022-10-31T04:03:37.271Z,101014.09
2022-10-31T04:06:08.107Z,101013.19
2022-10-31T04:08:53.714Z,101017.88
2022-10-31T04:11:24.256Z,101021.47
2022-10-31T04:13:51.557Z,101018.38
2022-10-31T04:16:18.952Z,101013.06
2022-10-31T04:18:45.634Z,101011.84
2022-10-31T04:21:12.127Z,100999.94
2022-10-31T04:23:38.687Z,101004.44
2022-10-31T04:26:05.311Z,101002.78
2022-10-31T04:28:33.725Z,101004.72
2022-10-31T04:31:00.549Z,101009.03
2022-10-31T04:33:27.039Z,101017.59
2022-10-31T04:35:53.553Z,101018.88
2022-10-31T04:38:20.347Z,101023.31
2022-10-31T04:40:46.905Z,101027.63
2022-10-31T04:43:13.464Z,101023.78
2022-10-31T04:45:39.996Z,101019.69
2022-10-31T04:48:06.447Z,101026.50
2022-10-31T04:50:32.911Z,101030.06
2022-10-31T04:52:59.445Z,101032.19
2022-10-31T04:55:25.970Z,101039.72
2022-10-31T04:57:52.442Z,101035.31
2022-10-31T05:00:20.968Z,101042.66
2022-10-31T05:02:48.983Z,101028.81
2022-10-31T05:05:17.224Z,101023.94
2022-10-31T05:07:46.053Z,101033.47
2022-10-31T05:10:14.827Z,101035.19
2022-10-31T05:12:59.779Z,101033.53
2022-10-31T05:15:27.975Z,101023.06
2022-10-31T05:17:55.184Z,101018.50
2022-10-31T05:20:25.059Z,101006.50
2022-10-31T05:22:53.808Z,101013.28
2022-10-31T05:25:22.748Z,101006.44
2022-10-31T05:27:51.290Z,101001.41
2022-10-31T05:30:21.224Z,100995.22
2022-10-31T05:32:49.632Z,100997.53
2022-10-31T05:35:23.297Z,100994.63
2022-10-31T05:37:50.044Z,100994.19
2022-10-31T05:40:18.244Z,100992.56
2022-10-31T05:42:45.220Z,101000.03
2022-10-31T05:45:14.611Z,101006.72
2022-10-31T05:47:41.088Z,101006.69
2022-10-31T05:50:09.151Z,101016.22
2022-10-31T05:52:36.323Z,101007.16
2022-10-31T05:55:03.754Z,101016.75
2022-10-31T05:57:32.073Z,101011.88
2022-10-31T05:59:58.525Z,101017.84
2022-10-31T06:02:25.038Z,101011.22
2022-10-31T06:04:51.630Z,101009.75
2022-10-31T06:07:18.959Z,101011.50
2022-10-31T06:09:45.464Z,101006.72
2022-10-31T06:12:11.953Z,101002.78
2022-10-31T06:14:38.417Z,100996.69
2022-10-31T06:17:04.915Z,101000.59
2022-10-31T06:19:34.783Z,101004.47
2022-10-31T06:22:01.435Z,100997.91
2022-10-31T06:24:27.959Z,101002.69
2022-10-31T06:26:54.423Z,101005.94
2022-10-31T06:29:20.969Z,100998.91
2022-10-31T06:31:47.439Z,100997.91
2022-10-31T06:34:13.905Z,100998.06
2022-10-31T06:36:42.437Z,101002.00
2022-10-31T06:39:08.999Z,101005.97
2022-10-31T06:41:37.461Z,101003.63
2022-10-31T06:44:06.540Z,101009.91
2022-10-31T06:46:35.396Z,101002.53
2022-10-31T06:49:01.882Z,101008.25
2022-10-31T06:51:28.382Z,101014.53
2022-10-31T06:53:54.889Z,101020.19
2022-10-31T06:56:21.369Z,101022.47
2022-10-31T06:58:47.847Z,101019.34
2022-10-31T07:01:14.635Z,101019.41
2022-10-31T07:03:41.203Z,101022.41
2022-10-31T07:06:07.698Z,101019.13
2022-10-31T07:08:34.186Z,101027.34
2022-10-31T07:11:00.712Z,101027.75
2022-10-31T07:13:27.180Z,101034.41
2022-10-31T07:15:55.899Z,101032.59
2022-10-31T07:18:22.892Z,101030.34
2022-10-31T07:20:49.488Z,101025.47
2022-10-31T07:23:19.106Z,101035.50
2022-10-31T07:25:45.673Z,101024.53
2022-10-31T07:28:12.434Z,101024.78
2022-10-31T07:30:39.246Z,101026.91
2022-10-31T07:33:06.694Z,101025.78
2022-10-31T07:35:33.331Z,101032.41
2022-10-31T07:38:08.920Z,101024.09
2022-10-31T07:40:35.429Z,101034.53
2022-10-31T07:43:01.896Z,101034.47
2022-10-31T07:45:29.080Z,101033.16
2022-10-31T07:47:58.794Z,101034.22
2022-10-31T07:50:34.888Z,101033.34
2022-10-31T07:53:09.550Z,101029.53
2022-10-31T07:55:36.940Z,101034.69
2022-10-31T07:58:05.652Z,101033.84
2022-10-31T08:00:33.853Z,101039.97
2022-10-31T08:03:11.674Z,101037.66
2022-10-31T08:05:38.755Z,101037.91
2022-10-31T08:08:06.195Z,101037.66
2022-10-31T08:10:33.444Z,101032.53
2022-10-31T08:13:02.368Z,101026.13
2022-10-31T08:15:29.208Z,101025.34
2022-10-31T08:17:55.870Z,101023.81
2022-10-31T08:20:22.837Z,101020.75
2022-10-31T08:23:00.698Z,101019.25
2022-10-31T08:25:30.982Z,101027.88
2022-10-31T08:28:00.816Z,101021.91
2022-10-31T08:30:32.441Z,101021.13
2022-10-31T08:33:15.547Z,101014.13
2022-10-31T08:35:42.098Z,101015.25
2022-10-31T08:38:12.818Z,101018.06
2022-10-31T08:40:39.948Z,101021.03
2022-10-31T08:43:11.741Z,101016.75
2022-10-31T08:45:38.264Z,101020.22
2022-10-31T08:48:07.784Z,101014.84
2022-10-31T08:50:35.995Z,101003.78
2022-10-31T08:53:05.922Z,101008.75
2022-10-31T08:55:35.309Z,101017.63
2022-10-31T08:58:04.005Z,101017.66
2022-10-31T09:00:30.797Z,101012.88
2022-10-31T09:03:02.001Z,101016.31
2022-10-31T09:05:29.127Z,101006.19
2022-10-31T09:08:00.523Z,101006.81
2022-10-31T09:10:28.762Z,101002.66
2022-10-31T09:13:16.283Z,101010.22
2022-10-31T09:15:44.885Z,101001.75
2022-10-31T09:18:12.698Z,101003.50
2022-10-31T09:20:41.055Z,101008.81
2022-10-31T09:23:11.080Z,101004.69
2022-10-31T09:25:38.012Z,100993.47
2022-10-31T09:28:06.220Z,100982.06
2022-10-31T09:30:35.283Z,100982.41
2022-10-31T09:33:04.965Z,100978.91
2022-10-31T09:35:31.793Z,100980.50
2022-10-31T09:38:00.332Z,100978.22
2022-10-31T09:40:39.209Z,100979.00
2022-10-31T09:43:14.488Z,100976.31
2022-10-31T09:45:56.227Z,100978.63
2022-10-31T09:48:44.400Z,100985.53
2022-10-31T09:51:16.551Z,100979.28
2022-10-31T09:54:00.219Z,100979.69
2022-10-31T09:56:28.400Z,100972.84
2022-10-31T09:58:59.011Z,100980.16
2022-10-31T10:01:42.741Z,100978.84
2022-10-31T10:04:40.361Z,100972.44
2022-10-31T10:07:22.171Z,100966.53
2022-10-31T10:09:48.722Z,100964.06
2022-10-31T10:12:29.668Z,100959.28
2022-10-31T10:15:30.946Z,100965.78
2022-10-31T10:18:36.257Z,100959.97
2022-10-31T10:21:16.311Z,100960.34
2022-10-31T10:23:54.888Z,100964.56
2022-10-31T10:26:47.998Z,100963.47
2022-10-31T10:29:35.537Z,100957.19
2022-10-31T10:32:34.673Z,100953.91
2022-10-31T10:35:12.643Z,100955.19
2022-10-31T10:37:44.050Z,100953.13
2022-10-31T10:40:19.151Z,100945.47
2022-10-31T10:43:15.321Z,100945.91
2022-10-31T10:46:06.547Z,100938.06
2022-10-31T10:48:42.737Z,100934.63
2022-10-31T10:51:31.964Z,100931.59
2022-10-31T10:54:23.297Z,100933.22
2022-10-31T10:57:32.986Z,100935.25
2022-10-31T11:00:02.813Z,100932.59
2022-10-31T11:02:33.685Z,100921.38
2022-10-31T11:05:05.777Z,100907.13
2022-10-31T11:07:40.236Z,100911.56
2022-10-31T11:10:14.887Z,100902.53
2022-10-31T11:12:43.326Z,100902.34
2022-10-31T11:15:24.303Z,100894.84
2022-10-31T11:17:53.818Z,100900.47
2022-10-31T11:20:20.676Z,100881.25
2022-10-31T11:22:49.208Z,100889.69
2022-10-31T11:25:26.806Z,100883.59
2022-10-31T11:28:01.286Z,100883.06
2022-10-31T11:30:28.391Z,100874.63
2022-10-31T11:32:55.191Z,100876.84
2022-10-31T11:35:24.416Z,100867.63
2022-10-31T11:37:59.743Z,100863.38
2022-10-31T11:40:27.532Z,100861.13
2022-10-31T11:42:57.425Z,100864.47
2022-10-31T11:45:23.824Z,100864.00
2022-10-31T11:47:58.197Z,100862.66
2022-10-31T11:50:39.506Z,100862.34
2022-10-31T11:53:15.964Z,100856.34
2022-10-31T11:55:42.500Z,100850.56
2022-10-31T11:58:23.845Z,100831.78
2022-10-31T12:00:52.934Z,100825.41
2022-10-31T12:03:39.859Z,100826.94
2022-10-31T12:06:14.241Z,100818.34
2022-10-31T12:08:42.752Z,100817.75
2022-10-31T12:11:30.473Z,100813.09
2022-10-31T12:14:01.264Z,100812.88
2022-10-31T12:16:51.345Z,100811.91
2022-10-31T12:19:55.294Z,100809.63
2022-10-31T12:22:44.625Z,100812.59
2022-10-31T12:25:21.708Z,100801.00
2022-10-31T12:28:15.276Z,100801.47
2022-10-31T12:30:50.748Z,100795.53
2022-10-31T12:33:26.357Z,100792.94
2022-10-31T12:36:17.112Z,100792.31
2022-10-31T12:39:17.325Z,100794.72
2022-10-31T12:41:49.564Z,100794.84
2022-10-31T12:44:54.538Z,100790.78
2022-10-31T12:47:46.420Z,100787.94
2022-10-31T12:50:23.559Z,100791.66
2022-10-31T12:53:26.897Z,100790.22
2022-10-31T12:55:59.136Z,100793.63
2022-10-31T12:58:52.508Z,100783.03
2022-10-31T13:01:35.504Z,100769.56
2022-10-31T13:04:14.811Z,100762.69
2022-10-31T13:06:45.341Z,100750.75
2022-10-31T13:09:20.420Z,100738.72
2022-10-31T13:11:51.131Z,100735.84
2022-10-31T13:14:23.344Z,100720.06
2022-10-31T13:16:50.237Z,100723.66
2022-10-31T13:19:35.367Z,100715.97
2022-10-31T13:22:18.928Z,100710.47
2022-10-31T13:24:53.682Z,100700.53
2022-10-31T13:27:23.943Z,100700.19
2022-10-31T13:29:53.463Z,100699.59
2022-10-31T13:32:20.256Z,100700.69
2022-10-31T13:34:52.597Z,100705.78
2022-10-31T13:37:36.049Z,100689.56
2022-10-31T13:40:31.613Z,100690.31
2022-10-31T13:43:06.551Z,100687.38
2022-10-31T13:45:33.102Z,100684.94
2022-10-31T13:48:20.970Z,100683.75
2022-10-31T13:51:03.024Z,100686.22
2022-10-31T13:53:57.452Z,100667.91
2022-10-31T13:56:25.357Z,100666.44
2022-10-31T13:59:10.105Z,100666.66
2022-10-31T14:01:37.823Z,100668.00
2022-10-31T14:04:14.783Z,100670.81
2022-10-31T14:06:58.238Z,100660.38
2022-10-31T14:09:34.838Z,100662.72
2022-10-31T14:12:23.237Z,100656.72
2022-10-31T14:14:53.542Z,100654.59
2022-10-31T14:17:24.682Z,100654.88
2022-10-31T14:20:03.961Z,100654.56
2022-10-31T14:22:42.921Z,100648.81
2022-10-31T14:25:28.361Z,100647.66
2022-10-31T14:27:54.999Z,100656.75
2022-10-31T14:30:25.316Z,100652.91
2022-10-31T14:32:59.519Z,100640.75
2022-10-31T14:35:34.620Z,100626.34
2022-10-31T14:38:37.994Z,100628.09
2022-10-31T14:41:33.651Z,100628.38
2022-10-31T14:44:18.444Z,100620.13
2022-10-31T14:47:17.817Z,100620.50
2022-10-31T14:50:03.262Z,100635.66
2022-10-31T14:52:29.885Z,100662.00
2022-10-31T14:54:59.713Z,100670.72
2022-10-31T14:57:33.888Z,100652.84
2022-10-31T15:00:07.158Z,100643.53
2022-10-31T15:02:50.505Z,100641.56
2022-10-31T15:05:17.513Z,100635.22
2022-10-31T15:07:53.027Z,100632.22
2022-10-31T15:10:23.453Z,100643.78
2022-10-31T15:12:49.969Z,100644.72
2022-10-31T15:15:35.456Z,100650.38
2022-10-31T15:18:05.604Z,100647.44
2022-10-31T15:20:39.441Z,100637.69
2022-10-31T15:23:06.961Z,100632.66
2022-10-31T15:25:36.377Z,100635.34
2022-10-31T15:28:17.407Z,100621.31
2022-10-31T15:30:52.409Z,100615.91
2022-10-31T15:33:21.677Z,100613.91
2022-10-31T15:36:03.256Z,100617.72
2022-10-31T15:38:30.542Z,100623.53
2022-10-31T15:41:20.246Z,100620.47
2022-10-31T15:43:47.900Z,100627.56
2022-10-31T15:46:14.590Z,100617.50
2022-10-31T15:48:46.382Z,100609.72
2022-10-31T15:51:13.511Z,100615.44
2022-10-31T15:53:48.318Z,100617.19
2022-10-31T15:56:22.864Z,100607.53
2022-10-31T15:58:52.183Z,100605.06
2022-10-31T16:01:27.544Z,100603.78
2022-10-31T16:04:03.778Z,100612.59
2022-10-31T16:06:30.985Z,100605.41
2022-10-31T16:08:57.529Z,100600.66
2022-10-31T16:11:39.954Z,100602.50
2022-10-31T16:14:16.354Z,100601.50
2022-10-31T16:16:49.187Z,100601.94
2022-10-31T16:19:23.789Z,100595.53
2022-10-31T16:22:04.930Z,100592.16
2022-10-31T16:24:47.687Z,100578.78
2022-10-31T16:27:29.284Z,100567.00
2022-10-31T16:30:05.161Z,100550.78
2022-10-31T16:32:53.770Z,100539.56
2022-10-31T16:35:35.413Z,100519.47
2022-10-31T16:38:02.083Z,100515.31
2022-10-31T16:40:29.553Z,100503.75
2022-10-31T16:42:58.699Z,100492.69
2022-10-31T16:45:29.908Z,100474.69
2022-10-31T16:48:06.682Z,100453.81
2022-10-31T16:50:33.685Z,100454.66
2022-10-31T16:53:13.420Z,100462.06
2022-10-31T16:56:03.013Z,100442.28
2022-10-31T16:58:34.481Z,100430.56
2022-10-31T17:01:02.863Z,100441.91
2022-10-31T17:03:29.428Z,100429.59
2022-10-31T17:05:56.392Z,100449.19
2022-10-31T17:08:24.682Z,100475.75
2022-10-31T17:10:56.348Z,100499.34
2022-10-31T17:13:25.475Z,100496.25
2022-10-31T17:15:54.947Z,100506.16
2022-10-31T17:18:26.921Z,100512.53
2022-10-31T17:20:59.710Z,100508.25
2022-10-31T17:23:27.078Z,100517.63
2022-10-31T17:25:53.586Z,100525.38
2022-10-31T17:28:20.376Z,100506.09
2022-10-31T17:30:47.308Z,100502.91
2022-10-31T17:33:15.776Z,100507.53
2022-10-31T17:35:45.453Z,100515.25
2022-10-31T17:38:12.635Z,100517.53
2022-10-31T17:40:42.107Z,100539.63
2022-10-31T17:43:12.404Z,100565.88
2022-10-31T17:45:40.981Z,100553.50
2022-10-31T17:48:09.462Z,100529.28
2022-10-31T17:50:36.194Z,100529.31
2022-10-31T17:53:03.054Z,100522.41
2022-10-31T17:55:34.484Z,100519.06
2022-10-31T17:58:04.327Z,100501.41
2022-10-31T18:00:30.835Z,100488.75
2022-10-31T18:02:57.436Z,100489.50
2022-10-31T18:05:24.096Z,100501.41
2022-10-31T18:07:51.122Z,100518.44
2022-10-31T18:10:18.094Z,100509.03
2022-10-31T18:12:44.696Z,100492.44
2022-10-31T18:15:11.837Z,100478.97
2022-10-31T18:17:41.944Z,100478.28
2022-10-31T18:20:09.751Z,100476.06
2022-10-31T18:22:36.418Z,100488.00
2022-10-31T18:25:04.296Z,100467.13
2022-10-31T18:27:30.874Z,100472.13
2022-10-31T18:29:57.378Z,100468.94
2022-10-31T18:32:27.433Z,100478.97
2022-10-31T18:34:54.137Z,100486.50
2022-10-31T18:37:20.634Z,100484.81
2022-10-31T18:39:47.109Z,100471.97
2022-10-31T18:42:13.716Z,100478.97
2022-10-31T18:44:40.455Z,100469.84
2022-10-31T18:47:06.936Z,100472.09
2022-10-31T18:49:33.503Z,100471.00
2022-10-31T18:52:00.388Z,100473.28
2022-10-31T18:54:26.888Z,100459.72
2022-10-31T18:56:53.518Z,100457.81
2022-10-31T18:59:20.013Z,100449.72
2022-10-31T19:01:46.791Z,100453.44
2022-10-31T19:04:13.584Z,100456.03
2022-10-31T19:06:40.143Z,100458.66
2022-10-31T19:09:10.598Z,100465.25
2022-10-31T19:11:38.030Z,100475.31
2022-10-31T19:14:05.513Z,100477.97
2022-10-31T19:16:33.694Z,100476.66
2022-10-31T19:19:00.282Z,100487.47
2022-10-31T19:21:27.372Z,100489.34
2022-10-31T19:23:56.249Z,100500.91
2022-10-31T19:26:22.816Z,100487.63
2022-10-31T19:28:49.283Z,100479.22
2022-10-31T19:31:15.988Z,100484.19
2022-10-31T19:33:42.512Z,100488.31
2022-10-31T19:36:12.310Z,100492.91
2022-10-31T19:38:41.595Z,100488.38
2022-10-31T19:41:11.661Z,100497.16
2022-10-31T19:43:38.443Z,100498.31
2022-10-31T19:46:06.251Z,100492.22
2022-10-31T19:48:36.369Z,100489.91
2022-10-31T19:51:09.125Z,100496.03
2022-10-31T19:53:35.912Z,100497.94
2022-10-31T19:56:02.973Z,100483.41
2022-10-31T19:58:31.517Z,100477.69
2022-10-31T20:03:29.923Z,100478.84
2022-10-31T20:05:56.392Z,100478.84
2022-10-31T20:08:23.214Z,100480.38
2022-10-31T20:10:57.476Z,100484.97
2022-10-31T20:13:24.837Z,100493.00
2022-10-31T20:15:52.397Z,100480.75
2022-10-31T20:18:19.128Z,100497.94
2022-10-31T20:20:45.814Z,100492.19
2022-10-31T20:23:12.368Z,100488.41
2022-10-31T20:25:46.966Z,100494.09
2022-10-31T20:28:13.441Z,100500.59
2022-10-31T20:30:39.960Z,100501.00
2022-10-31T20:33:06.723Z,100502.13
2022-10-31T20:35:39.629Z,100504.44
2022-10-31T20:38:07.568Z,100505.56
2022-10-31T20:40:35.149Z,100506.72
2022-10-31T20:43:02.815Z,100504.03
2022-10-31T20:45:30.484Z,100506.66
2022-10-31T20:47:57.726Z,100499.09
2022-10-31T20:50:25.573Z,100486.06
2022-10-31T20:52:52.698Z,100497.03
2022-10-31T20:55:19.633Z,100487.19
2022-10-31T20:57:46.235Z,100479.88
2022-10-31T21:00:13.528Z,100489.00
2022-10-31T21:02:43.904Z,100482.56
2022-10-31T21:05:12.434Z,100476.38
2022-10-31T21:07:40.156Z,100473.09
2022-10-31T21:10:16.620Z,100482.97
2022-10-31T21:12:46.231Z,100486.00
2022-10-31T21:15:14.232Z,100480.84
2022-10-31T21:17:41.603Z,100481.69
2022-10-31T21:20:10.509Z,100490.59
2022-10-31T21:22:37.909Z,100484.00
2022-10-31T21:25:04.672Z,100478.31
2022-10-31T21:27:31.356Z,100469.75
2022-10-31T21:29:58.264Z,100478.81
2022-10-31T21:32:24.929Z,100483.88
2022-10-31T21:34:51.426Z,100479.13
2022-10-31T21:37:17.959Z,100482.28
2022-10-31T21:39:49.656Z,100480.47
2022-10-31T21:42:20.565Z,100480.91
2022-10-31T21:44:49.095Z,100483.50
2022-10-31T21:47:16.196Z,100482.47
2022-10-31T21:49:42.753Z,100482.56
2022-10-31T21:52:09.631Z,100489.88
2022-10-31T21:54:37.549Z,100486.94
2022-10-31T21:57:04.177Z,100483.22
2022-10-31T21:59:30.711Z,100472.78
2022-10-31T22:01:59.600Z,100470.38
2022-10-31T22:04:27.190Z,100481.31
2022-10-31T22:06:53.877Z,100458.59
2022-10-31T22:09:20.508Z,100466.50
2022-10-31T22:11:47.067Z,100462.06
2022-10-31T22:14:14.852Z,100459.50
2022-10-31T22:16:42.163Z,100460.97
2022-10-31T22:19:11.549Z,100452.13
2022-10-31T22:21:41.366Z,100452.28
2022-10-31T22:24:08.529Z,100453.72
2022-10-31T22:26:35.926Z,100447.56
2022-10-31T22:29:06.089Z,100444.97
2022-10-31T22:31:33.931Z,100447.56
2022-10-31T22:34:01.003Z,100445.41
2022-10-31T22:36:30.123Z,100444.97
2022-10-31T22:38:57.461Z,100444.25
2022-10-31T22:41:34.815Z,100437.91
2022-10-31T22:44:02.840Z,100450.25
2022-10-31T22:46:31.512Z,100452.91
2022-10-31T22:49:00.604Z,100451.88
2022-10-31T22:51:29.564Z,100454.88
2022-10-31T22:53:56.645Z,100456.28
2022-10-31T22:56:25.456Z,100452.56
2022-10-31T22:58:52.168Z,100442.59
2022-10-31T23:01:21.106Z,100448.28
2022-10-31T23:03:48.425Z,100442.63
2022-10-31T23:06:17.522Z,100438.75
2022-10-31T23:08:45.151Z,100426.56
2022-10-31T23:11:24.093Z,100430.53
2022-10-31T23:14:08.824Z,100425.13
2022-10-31T23:16:55.188Z,100420.09
2022-10-31T23:19:27.678Z,100430.56
2022-10-31T23:22:01.795Z,100430.94
2022-10-31T23:24:46.830Z,100426.00
2022-10-31T23:27:14.812Z,100421.38
2022-10-31T23:30:02.020Z,100432.47
2022-10-31T23:32:32.006Z,100437.81
2022-10-31T23:35:00.594Z,100437.63
2022-10-31T23:37:29.727Z,100439.06
2022-10-31T23:39:56.585Z,100434.75
2022-10-31T23:42:24.276Z,100430.28
2022-10-31T23:44:51.246Z,100438.31
2022-10-31T23:47:18.926Z,100447.50
2022-10-31T23:49:46.039Z,100444.03
2022-10-31T23:52:13.548Z,100446.72
2022-10-31T23:54:40.189Z,100452.84
2022-10-31T23:57:06.691Z,100447.47
2022-10-31T23:59:33.296Z,100433.31
